Time;durP1;ratioP1;P1;durP2;ratioP2;P2;SDS_P1;SDS_P2;PMS_P1;PMS_P2;Temp;Humidity;BMP_temperature;BMP_pressure;BME280_temperature;BME280_humidity;BME280_pressure;Samples;Min_cycle;Max_cycle;Signal;HPM_P1;HPM_P2
2023/10/29 00:00:10;;;;;;;5.38;2.78;;;12.20;99.90;;;;;;5106732;27;20042;-85
2023/10/29 00:02:36;;;;;;;4.30;2.63;;;10.50;99.90;;;;;;5105685;27;20042;-86
2023/10/29 00:05:02;;;;;;;6.93;3.75;;;10.80;99.90;;;;;;5102875;27;20068;-86
2023/10/29 00:07:28;;;;;;;3.55;2.25;;;10.80;99.90;;;;;;5102558;27;20034;-86
2023/10/29 00:09:54;;;;;;;3.42;2.47;;;9.60;99.90;;;;;;5104822;27;20047;-85
2023/10/29 00:12:19;;;;;;;5.53;3.00;;;10.50;99.90;;;;;;5124009;27;20038;-86
2023/10/29 00:14:48;;;;;;;5.30;2.70;;;;;;;;;;5103910;27;20035;-86
2023/10/29 00:17:14;;;;;;;4.68;2.30;;;10.50;99.90;;;;;;5102574;27;20035;-87
2023/10/29 00:19:40;;;;;;;4.57;2.90;;;12.70;99.90;;;;;;5120222;27;20408;-86
2023/10/29 00:22:05;;;;;;;5.78;3.13;;;11.40;99.90;;;;;;5122689;27;20047;-87
2023/10/29 00:24:33;;;;;;;5.35;2.15;;;11.10;99.90;;;;;;5106265;27;20046;-87
2023/10/29 00:26:59;;;;;;;3.88;2.20;;;10.40;99.90;;;;;;5085947;27;20095;-87
2023/10/29 00:29:24;;;;;;;7.07;3.20;;;10.80;99.90;;;;;;5102772;27;20043;-87
2023/10/29 00:31:51;;;;;;;3.35;2.97;;;12.60;99.90;;;;;;5105378;27;20528;-86
2023/10/29 00:34:17;;;;;;;3.10;2.67;;;12.70;99.90;;;;;;5106449;27;20042;-87
2023/10/29 00:36:42;;;;;;;3.10;2.00;;;12.40;99.90;;;;;;5104415;27;20106;-87
2023/10/29 00:39:11;;;;;;;5.20;2.55;;;12.10;99.90;;;;;;5119547;27;20410;-86
2023/10/29 00:41:37;;;;;;;6.35;2.72;;;12.10;99.90;;;;;;5103072;27;20049;-86
2023/10/29 00:44:03;;;;;;;3.60;2.78;;;10.60;99.90;;;;;;5104942;27;20053;-86
2023/10/29 00:46:30;;;;;;;3.08;2.78;;;10.60;99.90;;;;;;5123193;27;20080;-86
2023/10/29 00:48:56;;;;;;;2.97;2.30;;;10.60;99.90;;;;;;5101910;27;20550;-86
2023/10/29 00:51:24;;;;;;;2.78;2.35;;;11.00;99.90;;;;;;5101789;28;20054;-86
2023/10/29 00:53:55;;;;;;;3.95;2.08;;;10.60;99.90;;;;;;5107291;27;20033;-86
2023/10/29 00:56:21;;;;;;;2.53;2.42;;;10.70;99.90;;;;;;5072607;27;20055;-86
2023/10/29 00:58:47;;;;;;;2.10;1.98;;;12.20;99.90;;;;;;5102844;27;20047;-86
2023/10/29 01:01:13;;;;;;;2.40;2.20;;;11.70;99.90;;;;;;5102425;28;20111;-86
2023/10/29 01:03:39;;;;;;;4.72;3.05;;;;;;;;;;5103155;27;20074;-86
2023/10/29 01:06:05;;;;;;;3.53;2.38;;;10.70;99.90;;;;;;5104818;27;20422;-85
2023/10/29 01:08:31;;;;;;;2.45;2.35;;;10.70;99.90;;;;;;5088319;27;20561;-85
2023/10/29 01:10:57;;;;;;;3.28;2.50;;;12.60;99.90;;;;;;5102319;27;20054;-85
2023/10/29 01:13:25;;;;;;;3.70;2.67;;;12.90;99.90;;;;;;5118744;28;20039;-86
2023/10/29 01:15:51;;;;;;;5.93;3.58;;;9.70;99.90;;;;;;5121292;27;20443;-85
2023/10/29 01:18:16;;;;;;;4.10;2.90;;;12.70;99.90;;;;;;5104829;27;20042;-86
2023/10/29 01:20:42;;;;;;;3.15;2.60;;;10.90;99.90;;;;;;5121728;27;20039;-86
2023/10/29 01:23:08;;;;;;;3.28;3.08;;;12.60;99.90;;;;;;5119102;28;20076;-85
2023/10/29 01:25:34;;;;;;;3.80;2.60;;;12.60;99.90;;;;;;5101343;28;20050;-86
2023/10/29 01:27:59;;;;;;;6.05;2.25;;;12.30;99.90;;;;;;5124148;27;20038;-86
2023/10/29 01:30:26;;;;;;;2.65;2.45;;;13.00;99.90;;;;;;5106391;27;20041;-86
2023/10/29 01:32:51;;;;;;;2.58;2.40;;;12.80;99.90;;;;;;5102718;27;20047;-85
2023/10/29 01:35:17;;;;;;;4.90;2.60;;;13.10;99.90;;;;;;5118883;28;20100;-86
2023/10/29 01:37:43;;;;;;;3.30;2.70;;;11.00;99.90;;;;;;5119767;27;20058;-85
2023/10/29 01:40:09;;;;;;;2.90;2.58;;;12.80;99.90;;;;;;5140320;27;20122;-85
2023/10/29 01:42:35;;;;;;;3.83;2.45;;;;;;;;;;5105342;27;20091;-85
2023/10/29 01:45:03;;;;;;;4.32;2.55;;;11.10;99.90;;;;;;5118749;28;20032;-85
2023/10/29 01:47:29;;;;;;;2.63;2.42;;;;;;;;;;5100983;28;20082;-86
2023/10/29 01:49:55;;;;;;;4.18;2.28;;;11.10;99.90;;;;;;5104231;27;20050;-85
2023/10/29 01:52:22;;;;;;;3.90;2.58;;;12.60;99.90;;;;;;5105673;27;20035;-85
2023/10/29 01:54:49;;;;;;;6.40;3.08;;;11.40;99.90;;;;;;5120688;27;20061;-86
2023/10/29 01:57:14;;;;;;;2.53;2.33;;;11.20;99.90;;;;;;5105680;27;20342;-85
2023/10/29 01:59:40;;;;;;;4.63;3.03;;;11.30;99.90;;;;;;5105951;27;20398;-86
2023/10/29 02:02:06;;;;;;;3.65;2.92;;;12.00;99.90;;;;;;5108177;27;20466;-85
2023/10/29 02:04:34;;;;;;;3.88;2.92;;;13.10;99.90;;;;;;5108636;27;20031;-86
2023/10/29 02:06:59;;;;;;;4.00;3.05;;;11.30;99.90;;;;;;5105311;27;20070;-85
2023/10/29 02:09:25;;;;;;;4.32;2.67;;;11.40;99.90;;;;;;5104474;27;20505;-86
2023/10/29 02:11:51;;;;;;;2.63;2.42;;;11.50;99.90;;;;;;5107155;27;20302;-85
2023/10/29 02:14:16;;;;;;;5.88;2.58;;;11.50;99.90;;;;;;5109000;27;20312;-86
2023/10/29 02:16:42;;;;;;;3.72;2.33;;;11.30;99.90;;;;;;5107036;27;20042;-86
2023/10/29 02:19:08;;;;;;;2.45;2.10;;;11.50;99.90;;;;;;5105016;27;20084;-86
2023/10/29 02:21:34;;;;;;;4.50;2.35;;;12.70;99.90;;;;;;5104453;27;20130;-85
2023/10/29 02:24:03;;;;;;;2.63;1.85;;;11.60;99.90;;;;;;5125514;27;20030;-85
2023/10/29 02:26:30;;;;;;;3.00;1.92;;;11.50;99.90;;;;;;5108942;27;20481;-85
2023/10/29 02:28:56;;;;;;;2.38;1.83;;;11.60;99.90;;;;;;5121946;27;20180;-86
2023/10/29 02:31:24;;;;;;;6.32;2.13;;;13.30;99.90;;;;;;5105137;27;20541;-86
2023/10/29 02:33:50;;;;;;;7.47;2.20;;;11.80;99.90;;;;;;5105773;27;20419;-85
2023/10/29 02:36:16;;;;;;;2.22;2.00;;;13.60;99.90;;;;;;5107544;27;20058;-84
2023/10/29 02:38:43;;;;;;;3.65;1.90;;;11.70;99.90;;;;;;5107299;27;20078;-85
2023/10/29 02:41:09;;;;;;;6.68;2.63;;;12.00;99.90;;;;;;5104293;27;20057;-85
2023/10/29 02:43:38;;;;;;;4.35;1.42;;;12.60;99.90;;;;;;5087390;27;20162;-85
2023/10/29 02:46:04;;;;;;;6.05;2.08;;;12.30;99.90;;;;;;5104531;27;20065;-85
2023/10/29 02:48:30;;;;;;;5.32;2.05;;;13.40;99.90;;;;;;5104087;27;20537;-85
2023/10/29 02:50:55;;;;;;;2.97;1.92;;;11.70;99.90;;;;;;5122570;27;20119;-84
2023/10/29 02:53:22;;;;;;;3.95;1.35;;;11.70;99.90;;;;;;5108569;27;20062;-85
2023/10/29 02:55:48;;;;;;;3.75;1.70;;;11.70;99.90;;;;;;5123749;27;20062;-85
2023/10/29 02:58:14;;;;;;;1.40;1.30;;;13.50;99.90;;;;;;5103473;27;20065;-86
2023/10/29 03:00:39;;;;;;;4.43;1.63;;;13.40;99.90;;;;;;5108317;27;20047;-85
2023/10/29 03:03:05;;;;;;;5.03;1.88;;;11.60;99.90;;;;;;5110299;27;20133;-85
2023/10/29 03:05:32;;;;;;;4.63;1.55;;;11.70;99.90;;;;;;5106807;27;20468;-85
2023/10/29 03:07:59;;;;;;;2.83;1.40;;;11.70;99.90;;;;;;5121259;27;20105;-85
2023/10/29 03:10:26;;;;;;;4.68;1.50;;;13.40;99.90;;;;;;5104139;27;20054;-86
2023/10/29 03:12:51;;;;;;;4.10;1.70;;;11.70;99.90;;;;;;5122238;27;20201;-85
2023/10/29 03:15:17;;;;;;;3.15;1.20;;;11.80;99.90;;;;;;5124822;27;20089;-85
2023/10/29 03:17:43;;;;;;;2.72;1.50;;;11.70;99.90;;;;;;5105585;27;20078;-85
2023/10/29 03:20:11;;;;;;;3.97;1.20;;;11.70;99.90;;;;;;5104165;27;20039;-85
2023/10/29 03:22:36;;;;;;;3.17;1.15;;;11.90;99.90;;;;;;5103718;27;20039;-84
2023/10/29 03:25:02;;;;;;;3.35;1.40;;;11.70;99.90;;;;;;5106202;27;20072;-85
2023/10/29 03:27:28;;;;;;;3.90;1.55;;;11.70;99.90;;;;;;5107568;27;20035;-86
2023/10/29 03:29:54;;;;;;;3.20;1.38;;;11.70;99.90;;;;;;5087629;27;20425;-85
2023/10/29 03:32:19;;;;;;;3.13;1.20;;;12.90;99.90;;;;;;5103219;27;20084;-85
2023/10/29 03:34:45;;;;;;;4.10;1.10;;;13.40;99.90;;;;;;5121384;27;20466;-85
2023/10/29 03:37:11;;;;;;;2.78;0.85;;;13.00;99.90;;;;;;5107099;27;20042;-85
2023/10/29 03:39:38;;;;;;;4.60;0.88;;;13.20;99.90;;;;;;5123226;27;20387;-85
2023/10/29 03:42:04;;;;;;;4.97;1.10;;;11.60;99.90;;;;;;5086611;27;20085;-84
2023/10/29 03:44:31;;;;;;;2.40;0.75;;;11.70;99.90;;;;;;5120405;27;20075;-84
2023/10/29 03:46:57;;;;;;;3.20;0.98;;;11.80;99.90;;;;;;5087873;27;20127;-84
2023/10/29 03:49:23;;;;;;;3.15;0.75;;;11.70;99.90;;;;;;5106897;27;20041;-85
2023/10/29 03:51:48;;;;;;;1.38;0.60;;;13.20;99.90;;;;;;5105161;27;20090;-85
2023/10/29 03:54:14;;;;;;;2.55;0.63;;;11.80;99.90;;;;;;5119590;27;20035;-85
2023/10/29 03:56:40;;;;;;;1.75;1.00;;;11.80;99.90;;;;;;5112967;27;20045;-85
2023/10/29 03:59:06;;;;;;;4.30;0.68;;;12.20;99.90;;;;;;5106856;27;20038;-86
2023/10/29 04:01:32;;;;;;;2.22;0.63;;;11.80;99.90;;;;;;5088761;27;20463;-85
2023/10/29 04:03:58;;;;;;;1.48;0.63;;;13.50;99.90;;;;;;5121100;27;20042;-85
2023/10/29 04:06:27;;;;;;;3.45;0.85;;;11.80;99.90;;;;;;5120442;27;20058;-85
2023/10/29 04:08:52;;;;;;;1.10;0.50;;;13.20;99.90;;;;;;5120596;27;20043;-85
2023/10/29 04:11:21;;;;;;;2.78;0.55;;;11.90;99.90;;;;;;5106945;27;20425;-85
2023/10/29 04:13:47;;;;;;;2.88;0.75;;;13.40;99.90;;;;;;5122372;27;20049;-85
2023/10/29 04:16:13;;;;;;;4.18;0.60;;;11.90;99.90;;;;;;5102269;27;20035;-85
2023/10/29 04:18:39;;;;;;;1.67;0.50;;;12.70;99.90;;;;;;5118897;27;20088;-85
2023/10/29 04:21:06;;;;;;;0.55;0.30;;;13.20;99.90;;;;;;5122320;27;20435;-84
2023/10/29 04:23:32;;;;;;;2.92;0.57;;;13.30;99.90;;;;;;5141895;27;20047;-83
2023/10/29 04:25:57;;;;;;;3.72;0.60;;;12.10;99.90;;;;;;5120928;27;20448;-85
2023/10/29 04:28:23;;;;;;;4.05;0.68;;;12.10;99.90;;;;;;5118896;27;20092;-86
2023/10/29 04:30:49;;;;;;;4.78;0.50;;;12.10;99.90;;;;;;5120440;27;20043;-86
2023/10/29 04:33:17;;;;;;;2.08;0.30;;;12.10;99.90;;;;;;5106430;27;20023;-85
2023/10/29 04:35:43;;;;;;;1.52;0.25;;;12.10;99.90;;;;;;5105074;27;20126;-86
2023/10/29 04:38:08;;;;;;;1.17;0.20;;;13.20;99.90;;;;;;5102205;27;20122;-87
2023/10/29 04:40:34;;;;;;;4.38;0.40;;;12.20;99.90;;;;;;5102311;28;20039;-86
2023/10/29 04:43:00;;;;;;;1.42;0.10;;;12.00;99.90;;;;;;5121421;27;20059;-86
2023/10/29 04:45:25;;;;;;;1.45;0.20;;;11.60;99.90;;;;;;5106401;27;20047;-87
2023/10/29 04:47:51;;;;;;;0.75;0.20;;;11.90;99.90;;;;;;5121049;27;20557;-88
2023/10/29 04:50:17;;;;;;;1.65;0.20;;;12.30;99.90;;;;;;5101787;28;20045;-88
2023/10/29 04:53:19;;;;;;;;;;;;;;;;;;;;;
2023/10/29 04:55:46;;;;;;;1.80;0.32;;;;;;;;;;5084284;27;20047;-87
2023/10/29 04:58:17;;;;;;;1.25;0.13;;;11.80;99.90;;;;;;5101971;28;20043;-87
2023/10/29 05:00:42;;;;;;;4.50;0.20;;;13.30;99.90;;;;;;5102579;27;20046;-87
2023/10/29 05:03:08;;;;;;;1.17;0.22;;;11.50;99.90;;;;;;5104988;27;20477;-87
2023/10/29 05:05:36;;;;;;;4.97;0.55;;;13.40;99.90;;;;;;5105712;27;20051;-88
2023/10/29 05:08:02;;;;;;;0.80;0.20;;;;;;;;;;5119569;27;20086;-88
2023/10/29 05:10:28;;;;;;;3.67;0.68;;;11.70;99.90;;;;;;5101953;28;20599;-88
2023/10/29 05:12:54;;;;;;;2.42;0.20;;;13.20;99.90;;;;;;5120711;27;20490;-88
2023/10/29 05:15:20;;;;;;;1.40;0.38;;;;;;;;;;5122889;27;20088;-86
2023/10/29 05:17:46;;;;;;;4.53;0.22;;;;;;;;;;5103966;27;20038;-87
2023/10/29 05:20:12;;;;;;;1.40;0.20;;;11.60;99.90;;;;;;5119148;28;20039;-86
2023/10/29 05:22:38;;;;;;;1.85;0.40;;;12.10;99.90;;;;;;5119051;28;20080;-86
2023/10/29 05:25:11;;;;;;;1.20;0.20;;;11.50;99.90;;;;;;5104533;27;20030;-86
2023/10/29 05:27:36;;;;;;;0.82;0.30;;;12.60;99.90;;;;;;5105518;27;20042;-87
2023/10/29 05:30:05;;;;;;;0.90;0.28;;;13.50;99.90;;;;;;5104411;27;20050;-86
2023/10/29 05:32:32;;;;;;;1.35;0.57;;;11.40;99.90;;;;;;5105223;27;20047;-86
2023/10/29 05:35:00;;;;;;;1.55;0.20;;;11.40;99.90;;;;;;5125281;27;20043;-86
2023/10/29 05:37:25;;;;;;;1.80;0.20;;;11.30;99.90;;;;;;5126541;27;20050;-86
2023/10/29 05:39:54;;;;;;;2.80;0.13;;;11.00;99.90;;;;;;5107423;27;20042;-86
2023/10/29 05:42:20;;;;;;;2.38;0.20;;;11.30;99.90;;;;;;5123166;27;20055;-86
2023/10/29 05:44:46;;;;;;;0.90;0.10;;;11.30;99.90;;;;;;5105923;27;20087;-86
2023/10/29 05:47:11;;;;;;;1.25;0.25;;;12.50;99.90;;;;;;5125111;27;20041;-86
2023/10/29 05:49:37;;;;;;;0.63;0.20;;;12.20;99.90;;;;;;5109277;27;20137;-86
2023/10/29 05:52:03;;;;;;;1.58;0.10;;;11.30;99.90;;;;;;5106413;27;20043;-86
2023/10/29 05:54:28;;;;;;;0.77;0.13;;;11.20;99.90;;;;;;5105208;27;20458;-86
2023/10/29 05:56:54;;;;;;;1.70;0.17;;;11.80;99.90;;;;;;5106516;27;20043;-86
2023/10/29 05:59:20;;;;;;;2.28;0.30;;;12.30;99.90;;;;;;5126433;27;20476;-87
2023/10/29 06:01:46;;;;;;;8.13;0.73;;;12.70;99.90;;;;;;5107766;27;20069;-86
2023/10/29 06:04:11;;;;;;;1.15;0.50;;;11.20;99.90;;;;;;5105529;27;20593;-86
2023/10/29 06:06:37;;;;;;;2.70;0.68;;;12.20;99.90;;;;;;5121707;27;20039;-87
2023/10/29 06:09:03;;;;;;;4.30;0.50;;;12.90;99.90;;;;;;5107977;27;21092;-87
2023/10/29 06:11:29;;;;;;;3.92;1.10;;;11.40;99.90;;;;;;5109166;27;20093;-88
2023/10/29 06:13:57;;;;;;;7.03;0.80;;;12.30;99.90;;;;;;5106403;27;20531;-89
2023/10/29 06:16:23;;;;;;;2.80;0.77;;;12.40;99.90;;;;;;5105080;27;20494;-88
2023/10/29 06:18:49;;;;;;;2.42;0.30;;;11.50;99.90;;;;;;5088764;27;20175;-90
2023/10/29 06:21:17;;;;;;;4.63;0.60;;;10.30;99.90;;;;;;5108399;27;20517;-89
2023/10/29 06:23:43;;;;;;;4.47;0.52;;;11.50;99.90;;;;;;5126637;27;20035;-88
2023/10/29 06:26:09;;;;;;;3.58;0.50;;;11.70;99.90;;;;;;5122198;27;20047;-88
2023/10/29 06:28:34;;;;;;;3.50;0.70;;;11.50;99.90;;;;;;5121853;27;20516;-89
2023/10/29 06:31:00;;;;;;;4.80;0.90;;;12.00;99.90;;;;;;5123841;27;20051;-88
2023/10/29 06:33:26;;;;;;;3.47;0.30;;;11.50;99.90;;;;;;5108580;27;20486;-87
2023/10/29 06:35:52;;;;;;;2.28;0.50;;;12.10;99.90;;;;;;5106520;27;20049;-86
2023/10/29 06:38:17;;;;;;;4.18;0.50;;;9.90;99.90;;;;;;5104656;27;20130;-86
2023/10/29 06:40:43;;;;;;;1.65;0.38;;;11.50;99.90;;;;;;5104017;27;20123;-87
2023/10/29 06:43:09;;;;;;;5.05;0.38;;;12.40;99.90;;;;;;5124463;27;20509;-86
2023/10/29 06:45:35;;;;;;;4.75;0.52;;;11.50;99.90;;;;;;5107894;27;20134;-85
2023/10/29 06:48:00;;;;;;;3.05;0.43;;;11.90;99.90;;;;;;5122546;27;20047;-86
2023/10/29 06:50:28;;;;;;;2.78;0.30;;;11.70;99.90;;;;;;5104884;27;20357;-88
2023/10/29 06:52:54;;;;;;;4.53;0.77;;;13.00;99.90;;;;;;5105302;27;20035;-87
2023/10/29 06:55:22;;;;;;;3.03;0.70;;;10.70;99.90;;;;;;5125261;27;20087;-86
2023/10/29 06:57:48;;;;;;;8.95;0.95;;;11.50;99.90;;;;;;5106924;27;20034;-87
2023/10/29 07:00:15;;;;;;;4.60;0.40;;;13.50;99.90;;;;;;5121272;27;20068;-86
2023/10/29 07:02:41;;;;;;;2.92;0.60;;;12.00;99.90;;;;;;5104148;27;20089;-86
2023/10/29 07:05:07;;;;;;;1.13;0.50;;;13.20;99.90;;;;;;5123671;27;20066;-86
2023/10/29 07:07:36;;;;;;;5.15;0.50;;;11.60;99.90;;;;;;5107899;27;20042;-87
2023/10/29 07:10:04;;;;;;;5.03;0.40;;;13.60;99.90;;;;;;5104628;27;20042;-86
2023/10/29 07:12:31;;;;;;;1.08;0.28;;;11.50;99.90;;;;;;5121436;27;20053;-86
2023/10/29 07:14:58;;;;;;;2.55;0.43;;;12.10;99.90;;;;;;5122711;27;20047;-86
2023/10/29 07:17:24;;;;;;;1.85;0.40;;;;;;;;;;5106876;27;20129;-86
2023/10/29 07:19:51;;;;;;;3.15;0.38;;;11.60;99.90;;;;;;5123917;27;20050;-86
2023/10/29 07:22:17;;;;;;;2.88;0.20;;;12.40;99.90;;;;;;5120973;27;20046;-87
2023/10/29 07:24:43;;;;;;;1.85;0.60;;;;;;;;;;5102815;27;20406;-87
2023/10/29 07:27:08;;;;;;;2.17;0.40;;;11.60;99.90;;;;;;5112442;27;20145;-87
2023/10/29 07:29:34;;;;;;;2.42;0.47;;;12.70;99.90;;;;;;5103890;27;20493;-87
2023/10/29 07:32:00;;;;;;;2.45;0.30;;;13.90;99.90;;;;;;5122347;27;20050;-89
2023/10/29 07:34:26;;;;;;;4.20;0.35;;;13.20;99.90;;;;;;5107463;27;20126;-85
2023/10/29 07:36:51;;;;;;;2.90;0.28;;;11.70;99.90;;;;;;5106144;27;20042;-85
2023/10/29 07:39:17;;;;;;;4.00;0.20;;;13.30;99.90;;;;;;5120301;27;20043;-86
2023/10/29 07:41:43;;;;;;;3.92;0.40;;;12.60;99.90;;;;;;5120199;27;20054;-86
2023/10/29 07:44:08;;;;;;;2.95;0.20;;;11.80;99.90;;;;;;5106391;27;20043;-86
2023/10/29 07:46:34;;;;;;;3.25;0.50;;;11.60;99.90;;;;;;5105936;27;20073;-86
2023/10/29 07:49:02;;;;;;;2.10;0.25;;;13.50;99.90;;;;;;5105115;27;20078;-86
2023/10/29 07:51:28;;;;;;;5.43;0.50;;;11.70;99.90;;;;;;5086387;27;20255;-86
2023/10/29 07:53:57;;;;;;;3.50;0.43;;;11.70;99.90;;;;;;5103406;27;20043;-86
2023/10/29 07:56:22;;;;;;;1.00;0.15;;;11.80;99.90;;;;;;5124105;27;20042;-85
2023/10/29 07:58:48;;;;;;;2.15;0.50;;;11.80;99.90;;;;;;5120806;27;20053;-85
2023/10/29 08:01:16;;;;;;;2.63;0.40;;;11.80;99.90;;;;;;5106380;27;20414;-86
2023/10/29 08:03:46;;;;;;;7.13;0.75;;;11.80;99.90;;;;;;5123784;27;20038;-85
2023/10/29 08:06:13;;;;;;;6.65;0.85;;;12.60;99.90;;;;;;5102116;27;20479;-85
2023/10/29 08:08:39;;;;;;;5.80;0.50;;;12.10;99.90;;;;;;5119891;27;20076;-85
2023/10/29 08:11:04;;;;;;;4.85;0.60;;;12.60;99.90;;;;;;5122101;27;20410;-84
2023/10/29 08:13:30;;;;;;;5.20;0.73;;;12.00;99.90;;;;;;5123119;27;20052;-85
2023/10/29 08:15:57;;;;;;;3.83;0.47;;;12.00;99.90;;;;;;5122400;27;20049;-85
2023/10/29 08:18:22;;;;;;;3.15;0.55;;;12.00;99.90;;;;;;5119755;27;20055;-85
2023/10/29 08:20:48;;;;;;;5.03;0.70;;;13.60;99.90;;;;;;5101907;27;20055;-85
2023/10/29 08:23:17;;;;;;;5.22;0.70;;;12.40;99.90;;;;;;5106041;27;20034;-84
2023/10/29 08:25:45;;;;;;;9.20;1.00;;;12.10;99.90;;;;;;5141618;27;20110;-85
2023/10/29 08:28:11;;;;;;;2.85;0.50;;;12.10;99.90;;;;;;5102266;27;20553;-85
2023/10/29 08:30:37;;;;;;;5.35;1.15;;;12.20;99.90;;;;;;5119385;27;20047;-85
2023/10/29 08:33:02;;;;;;;5.80;0.60;;;12.30;99.90;;;;;;5104317;27;20095;-84
2023/10/29 08:35:28;;;;;;;4.30;0.77;;;14.10;99.90;;;;;;5105493;27;20035;-84
2023/10/29 08:37:54;;;;;;;3.60;0.88;;;12.20;99.90;;;;;;5121624;27;20129;-85
2023/10/29 08:40:20;;;;;;;9.57;0.77;;;12.20;99.90;;;;;;5102382;27;20138;-84
2023/10/29 08:42:45;;;;;;;4.90;0.77;;;12.80;99.90;;;;;;5101988;27;20557;-85
2023/10/29 08:45:14;;;;;;;2.72;0.60;;;14.00;99.90;;;;;;5122666;27;20565;-84
2023/10/29 08:47:40;;;;;;;6.05;0.95;;;12.30;99.90;;;;;;5105637;27;20059;-86
2023/10/29 08:50:09;;;;;;;6.30;0.80;;;12.30;99.90;;;;;;5102779;27;20049;-84
2023/10/29 08:52:37;;;;;;;4.15;0.68;;;12.30;99.90;;;;;;5119663;28;20047;-84
2023/10/29 08:55:03;;;;;;;4.43;0.90;;;13.40;99.90;;;;;;5121099;27;20115;-85
2023/10/29 08:57:29;;;;;;;5.38;1.05;;;12.40;99.90;;;;;;5105137;27;20039;-85
2023/10/29 08:59:55;;;;;;;4.65;0.60;;;14.40;99.90;;;;;;5121675;27;20688;-85
2023/10/29 09:02:21;;;;;;;6.75;0.40;;;12.50;99.90;;;;;;5101924;28;20066;-84
2023/10/29 09:04:47;;;;;;;3.65;0.60;;;12.90;99.90;;;;;;5105548;27;20398;-84
2023/10/29 09:07:14;;;;;;;8.90;1.15;;;12.40;99.90;;;;;;5109456;27;20857;-85
2023/10/29 09:09:40;;;;;;;3.35;0.63;;;12.70;99.90;;;;;;5109000;27;20133;-83
2023/10/29 09:12:06;;;;;;;4.35;0.80;;;12.90;99.90;;;;;;5107516;27;20130;-84
2023/10/29 09:14:31;;;;;;;3.95;0.73;;;12.50;99.90;;;;;;5123235;27;20077;-84
2023/10/29 09:16:57;;;;;;;4.55;0.40;;;13.10;99.90;;;;;;5106511;27;20043;-84
2023/10/29 09:19:22;;;;;;;5.68;1.00;;;12.50;99.90;;;;;;5127014;27;20357;-84
2023/10/29 09:21:48;;;;;;;6.43;1.13;;;14.00;99.90;;;;;;5126621;27;20103;-84
2023/10/29 09:24:15;;;;;;;4.32;0.93;;;12.60;99.90;;;;;;5105343;27;20035;-83
2023/10/29 09:26:43;;;;;;;5.55;0.75;;;12.60;99.90;;;;;;5123309;27;20460;-84
2023/10/29 09:29:13;;;;;;;4.75;0.93;;;12.70;99.90;;;;;;5126813;27;20150;-83
2023/10/29 09:31:38;;;;;;;4.80;0.45;;;14.00;99.90;;;;;;5109152;27;20046;-83
2023/10/29 09:34:04;;;;;;;2.63;0.40;;;11.50;99.90;;;;;;5107634;27;20045;-83
2023/10/29 09:36:30;;;;;;;4.32;0.63;;;13.70;99.90;;;;;;5105635;27;20079;-84
2023/10/29 09:38:56;;;;;;;6.72;1.08;;;13.90;99.90;;;;;;5105970;27;20112;-82
2023/10/29 09:41:23;;;;;;;2.83;0.68;;;13.00;99.90;;;;;;5143789;27;20486;-82
2023/10/29 09:43:53;;;;;;;7.47;0.65;;;13.00;99.90;;;;;;5092302;27;20089;-83
2023/10/29 09:46:23;;;;;;;3.88;0.68;;;13.90;99.90;;;;;;5122625;27;20505;-82
2023/10/29 09:49:00;;;;;;;4.78;0.40;;;13.10;99.90;;;;;;5105613;27;20035;-83
2023/10/29 09:51:29;;;;;;;5.20;0.60;;;12.90;99.90;;;;;;5105896;27;20138;-84
2023/10/29 09:54:13;;;;;;;4.00;0.70;;;14.30;99.90;;;;;;5126819;27;20127;-82
2023/10/29 09:56:44;;;;;;;4.88;0.65;;;12.30;99.90;;;;;;5109417;27;20105;-83
2023/10/29 09:59:30;;;;;;;4.88;1.02;;;12.90;99.90;;;;;;5105936;27;20134;-83
2023/10/29 10:02:03;;;;;;;5.10;0.80;;;13.00;99.90;;;;;;5123264;27;20043;-85
2023/10/29 10:04:30;;;;;;;7.90;1.15;;;13.20;99.90;;;;;;5109639;27;20494;-85
2023/10/29 10:06:59;;;;;;;3.28;0.73;;;13.00;99.90;;;;;;5125063;27;20042;-83
2023/10/29 10:09:28;;;;;;;3.55;0.57;;;14.20;99.90;;;;;;5122533;27;20039;-85
2023/10/29 10:12:04;;;;;;;5.35;0.77;;;14.70;99.90;;;;;;5105074;27;20062;-83
2023/10/29 10:14:30;;;;;;;4.47;0.50;;;13.10;99.90;;;;;;5108113;27;20047;-83
2023/10/29 10:17:13;;;;;;;4.43;0.85;;;13.10;99.90;;;;;;5107554;27;20050;-83
2023/10/29 10:19:40;;;;;;;3.53;0.50;;;15.00;99.90;;;;;;5104690;27;20130;-83
2023/10/29 10:22:29;;;;;;;5.93;0.90;;;13.20;99.90;;;;;;5124480;27;20038;-83
2023/10/29 10:24:58;;;;;;;4.97;0.60;;;13.20;99.90;;;;;;5124951;27;20564;-84
2023/10/29 10:27:32;;;;;;;2.25;0.52;;;13.30;99.90;;;;;;5105883;27;20054;-83
2023/10/29 10:33:20;;;;;;;8.73;1.02;;;12.20;99.90;;;;;;5091455;27;20039;-85
2023/10/29 10:35:51;;;;;;;6.32;1.08;;;13.30;99.90;;;;;;5087571;27;20409;-83
2023/10/29 10:38:22;;;;;;;2.83;0.65;;;12.60;99.90;;;;;;5108508;27;20038;-84
2023/10/29 10:40:59;;;;;;;5.35;0.82;;;13.60;99.90;;;;;;5107457;27;20051;-84
2023/10/29 10:43:26;;;;;;;3.90;1.20;;;13.20;99.90;;;;;;5105162;27;20073;-84
2023/10/29 10:46:01;;;;;;;6.15;0.75;;;13.20;99.90;;;;;;5087807;27;20074;-83
2023/10/29 10:48:34;;;;;;;7.15;0.80;;;12.50;99.90;;;;;;5104198;27;20068;-83
2023/10/29 10:51:09;;;;;;;3.53;0.40;;;13.30;99.90;;;;;;5105554;27;20051;-81
2023/10/29 10:53:38;;;;;;;10.90;0.90;;;13.40;99.90;;;;;;5108066;27;20280;-82
2023/10/29 10:56:08;;;;;;;4.00;1.08;;;13.40;99.90;;;;;;5122681;27;20043;-82
2023/10/29 10:58:36;;;;;;;8.15;1.10;;;13.30;99.90;;;;;;5104183;27;20050;-83
2023/10/29 11:01:08;;;;;;;5.63;1.08;;;15.30;99.90;;;;;;5088617;27;20057;-84
2023/10/29 11:03:34;;;;;;;7.10;1.20;;;13.30;99.90;;;;;;5124030;27;20137;-83
2023/10/29 11:06:00;;;;;;;6.05;0.52;;;13.30;99.90;;;;;;5106748;27;20125;-83
2023/10/29 11:08:26;;;;;;;4.10;0.75;;;13.30;99.90;;;;;;5104884;27;20074;-83
2023/10/29 11:10:55;;;;;;;2.85;0.77;;;13.30;99.90;;;;;;5121118;27;20142;-82
2023/10/29 11:13:20;;;;;;;9.02;1.45;;;13.30;99.90;;;;;;5104297;27;20391;-83
2023/10/29 11:15:47;;;;;;;7.47;1.08;;;13.30;99.90;;;;;;5087153;27;20050;-82
2023/10/29 11:18:13;;;;;;;7.82;1.13;;;13.30;99.90;;;;;;5141958;27;20050;-82
2023/10/29 11:20:41;;;;;;;10.10;1.38;;;14.10;99.90;;;;;;5125246;27;20038;-83
2023/10/29 11:23:13;;;;;;;4.97;0.98;;;13.30;99.90;;;;;;5105281;27;20046;-83
2023/10/29 11:25:39;;;;;;;4.18;1.15;;;13.40;99.90;;;;;;5101944;27;20035;-83
2023/10/29 11:28:06;;;;;;;2.22;0.63;;;13.30;99.90;;;;;;5106567;27;20053;-83
2023/10/29 11:30:31;;;;;;;7.75;1.10;;;13.30;99.90;;;;;;5103735;27;20062;-84
2023/10/29 11:33:09;;;;;;;5.25;0.95;;;13.30;99.90;;;;;;5104109;27;20379;-84
2023/10/29 11:35:36;;;;;;;6.00;1.17;;;13.30;99.90;;;;;;5124350;27;20493;-83
2023/10/29 11:38:21;;;;;;;7.95;1.67;;;13.30;99.90;;;;;;5123193;27;20383;-84
2023/10/29 11:40:49;;;;;;;11.48;1.77;;;14.60;99.90;;;;;;5121002;27;20062;-83
2023/10/29 11:43:18;;;;;;;12.07;1.73;;;13.40;99.90;;;;;;5123614;27;20066;-83
2023/10/29 11:46:01;;;;;;;6.03;1.25;;;13.60;99.90;;;;;;5106410;27;20061;-82
2023/10/29 11:48:29;;;;;;;10.48;1.48;;;13.30;99.90;;;;;;5103965;27;20039;-83
2023/10/29 11:51:05;;;;;;;11.10;1.88;;;13.10;99.90;;;;;;5120907;27;20055;-83
2023/10/29 11:53:31;;;;;;;7.35;1.30;;;13.10;99.90;;;;;;5120995;27;20120;-81
2023/10/29 11:56:05;;;;;;;8.05;1.50;;;13.30;99.90;;;;;;5138514;27;20522;-82
2023/10/29 11:58:32;;;;;;;8.43;1.02;;;13.30;99.90;;;;;;5124013;27;20035;-83
2023/10/29 12:01:01;;;;;;;8.00;0.90;;;13.40;99.90;;;;;;5106870;27;20550;-83
2023/10/29 12:03:29;;;;;;;6.28;1.48;;;13.30;99.90;;;;;;5104316;27;20048;-82
2023/10/29 12:05:55;;;;;;;9.15;1.58;;;13.40;99.90;;;;;;5103764;27;20658;-85
2023/10/29 12:08:24;;;;;;;8.38;1.15;;;13.30;99.90;;;;;;5107388;27;20035;-83
2023/10/29 12:10:52;;;;;;;6.72;1.25;;;13.40;99.90;;;;;;5123930;27;20042;-81
2023/10/29 12:13:18;;;;;;;9.20;1.67;;;13.80;99.90;;;;;;5097883;27;20176;-83
2023/10/29 12:15:47;;;;;;;7.03;1.23;;;13.30;99.90;;;;;;5106594;27;20095;-83
2023/10/29 12:18:20;;;;;;;7.03;1.20;;;13.20;99.90;;;;;;5104536;27;20494;-83
2023/10/29 12:20:47;;;;;;;6.65;0.95;;;13.30;99.90;;;;;;5102290;27;20518;-80
2023/10/29 12:23:13;;;;;;;5.90;1.30;;;13.30;99.90;;;;;;5122431;27;20043;-83
2023/10/29 12:25:39;;;;;;;8.85;1.67;;;13.20;99.90;;;;;;5106260;27;20053;-81
2023/10/29 12:28:06;;;;;;;10.45;1.60;;;14.60;99.90;;;;;;5087553;27;20278;-82
2023/10/29 12:30:41;;;;;;;8.43;1.65;;;13.20;99.90;;;;;;5118741;27;20086;-82
2023/10/29 12:33:20;;;;;;;11.35;1.23;;;13.10;99.90;;;;;;5104525;27;20035;-83
2023/10/29 12:35:50;;;;;;;9.25;1.80;;;14.60;99.90;;;;;;5105915;27;20038;-80
2023/10/29 12:38:18;;;;;;;8.27;1.13;;;13.10;99.90;;;;;;5103053;27;20235;-83
2023/10/29 12:41:08;;;;;;;5.75;1.08;;;13.10;99.90;;;;;;5101609;28;20433;-81
2023/10/29 12:43:40;;;;;;;6.68;1.38;;;13.10;99.90;;;;;;5107482;27;20043;-81
2023/10/29 12:46:16;;;;;;;10.15;1.63;;;13.10;99.90;;;;;;5103956;27;20129;-83
2023/10/29 12:49:04;;;;;;;7.88;1.40;;;13.10;99.90;;;;;;5117757;27;20486;-74
2023/10/29 12:51:35;;;;;;;7.38;1.35;;;13.10;99.90;;;;;;5124075;27;20038;-79
2023/10/29 12:54:23;;;;;;;6.47;1.38;;;13.00;99.90;;;;;;5106088;27;20031;-79